createdAt,value
2018-03-17T00:02:03.848Z,27.62
2018-03-17T00:04:31.539Z,22.58
2018-03-17T00:06:59.205Z,24.17
2018-03-17T00:09:27.068Z,19.67
2018-03-17T00:11:54.757Z,23.92
2018-03-17T00:14:22.427Z,26.40
2018-03-17T00:16:50.119Z,27.67
2018-03-17T00:19:17.804Z,33.22
2018-03-17T00:21:45.504Z,28.40
2018-03-17T00:24:13.175Z,25.85
2018-03-17T00:26:40.868Z,25.67
2018-03-17T00:29:08.539Z,28.92
2018-03-17T00:31:36.219Z,28.62
2018-03-17T00:34:03.924Z,29.30
2018-03-17T00:36:31.605Z,36.88
2018-03-17T00:38:59.316Z,27.27
2018-03-17T00:41:26.995Z,33.22
2018-03-17T00:43:54.681Z,25.00
2018-03-17T00:46:22.387Z,30.98
2018-03-17T00:48:50.063Z,23.77
2018-03-17T00:51:18.035Z,25.52
2018-03-17T00:53:45.717Z,27.40
2018-03-17T00:56:13.398Z,28.17
2018-03-17T00:58:41.092Z,28.62
2018-03-17T01:01:08.795Z,30.50
2018-03-17T01:03:36.505Z,25.05
2018-03-17T01:06:04.180Z,24.98
2018-03-17T01:08:31.916Z,26.55
2018-03-17T01:10:59.588Z,26.55
2018-03-17T01:13:27.263Z,27.25
2018-03-17T01:15:54.957Z,29.52
2018-03-17T01:18:22.628Z,31.20
2018-03-17T01:20:50.324Z,31.67
2018-03-17T01:23:17.993Z,27.67
2018-03-17T01:25:45.820Z,29.40
2018-03-17T01:28:13.496Z,27.75
2018-03-17T01:30:41.171Z,26.75
2018-03-17T01:33:08.872Z,32.17
2018-03-17T01:35:36.539Z,29.23
2018-03-17T01:38:04.239Z,25.58
2018-03-17T01:40:31.903Z,28.73
2018-03-17T01:42:59.619Z,30.90
2018-03-17T01:45:27.323Z,28.38
2018-03-17T01:47:54.992Z,30.02
2018-03-17T01:50:22.694Z,32.33
2018-03-17T01:52:50.374Z,27.35
2018-03-17T01:55:18.072Z,30.30
2018-03-17T01:57:45.749Z,32.05
2018-03-17T02:00:13.908Z,29.70
2018-03-17T02:02:41.758Z,30.60
2018-03-17T02:05:09.435Z,26.98
2018-03-17T02:07:37.128Z,28.40
2018-03-17T02:10:04.801Z,28.25
2018-03-17T02:12:32.505Z,30.52
2018-03-17T02:15:00.167Z,25.70
2018-03-17T02:17:27.895Z,32.83
2018-03-17T02:19:55.565Z,25.12
2018-03-17T02:22:23.240Z,30.58
2018-03-17T02:24:50.936Z,26.23
2018-03-17T02:27:18.608Z,30.30
2018-03-17T02:29:46.295Z,26.62
2018-03-17T02:32:13.969Z,29.52
2018-03-17T02:34:41.851Z,25.27
2018-03-17T02:37:09.532Z,28.15
2018-03-17T02:39:37.196Z,26.80
2018-03-17T02:42:04.888Z,34.25
2018-03-17T02:44:32.556Z,26.67
2018-03-17T02:47:00.246Z,27.37
2018-03-17T02:49:27.916Z,28.55
2018-03-17T02:51:55.744Z,28.70
2018-03-17T02:54:23.428Z,26.62
2018-03-17T02:56:51.106Z,26.20
2018-03-17T02:59:18.809Z,27.45
2018-03-17T03:01:46.488Z,28.75
2018-03-17T03:04:14.418Z,26.75
2018-03-17T03:06:42.110Z,27.98
2018-03-17T03:09:09.779Z,27.15
2018-03-17T03:11:37.472Z,30.17
2018-03-17T03:14:05.150Z,27.30
2018-03-17T03:16:32.846Z,26.45
2018-03-17T03:19:00.526Z,28.10
2018-03-17T03:21:28.237Z,27.25
2018-03-17T03:23:55.905Z,26.15
2018-03-17T03:26:23.576Z,27.00
2018-03-17T03:28:51.276Z,29.83
2018-03-17T03:31:18.969Z,30.52
2018-03-17T03:33:46.654Z,28.77
2018-03-17T03:36:14.333Z,28.60
2018-03-17T03:38:42.054Z,29.30
2018-03-17T03:41:09.732Z,26.75
2018-03-17T03:43:37.409Z,26.65
2018-03-17T03:46:05.104Z,30.85
2018-03-17T03:48:32.802Z,26.33
2018-03-17T03:51:02.139Z,25.62
2018-03-17T03:53:29.824Z,30.62
2018-03-17T03:55:57.633Z,23.98
2018-03-17T03:58:25.385Z,30.45
2018-03-17T04:00:53.056Z,28.75
2018-03-17T04:03:20.771Z,29.73
2018-03-17T04:05:48.445Z,24.25
2018-03-17T04:08:16.146Z,24.40
2018-03-17T04:10:43.812Z,32.40
2018-03-17T04:13:11.763Z,25.08
2018-03-17T04:15:39.435Z,29.33
2018-03-17T04:18:07.107Z,32.42
2018-03-17T04:20:34.798Z,31.30
2018-03-17T04:23:02.483Z,28.40
2018-03-17T04:25:30.200Z,28.60
2018-03-17T04:27:58.064Z,29.48
2018-03-17T04:30:26.054Z,27.05
2018-03-17T04:32:53.728Z,28.42
2018-03-17T04:35:21.476Z,24.87
2018-03-17T04:37:49.167Z,26.00
2018-03-17T04:40:16.853Z,28.17
2018-03-17T04:42:44.566Z,22.17
2018-03-17T04:45:12.240Z,29.63
2018-03-17T04:47:40.004Z,27.08
2018-03-17T04:50:07.704Z,25.10
2018-03-17T04:52:35.403Z,23.87
2018-03-17T04:55:03.100Z,28.80
2018-03-17T04:57:30.780Z,27.05
2018-03-17T04:59:58.473Z,26.65
2018-03-17T05:02:26.262Z,25.55
2018-03-17T05:04:54.215Z,31.67
2018-03-17T05:07:21.915Z,25.12
2018-03-17T05:09:49.664Z,26.17
2018-03-17T05:12:17.365Z,24.20
2018-03-17T05:14:45.035Z,27.85
2018-03-17T05:17:12.732Z,28.12
2018-03-17T05:19:40.405Z,26.45
2018-03-17T05:22:08.132Z,28.62
2018-03-17T05:24:35.814Z,28.15
2018-03-17T05:27:03.493Z,25.50
2018-03-17T05:29:31.202Z,25.30
2018-03-17T05:31:58.876Z,29.65
2018-03-17T05:34:27.227Z,27.52
2018-03-17T05:36:54.930Z,33.80
2018-03-17T05:39:22.742Z,23.90
2018-03-17T05:41:50.423Z,25.05
2018-03-17T05:44:18.092Z,26.85
2018-03-17T05:46:45.789Z,25.00
2018-03-17T05:49:13.492Z,25.62
2018-03-17T05:51:41.197Z,27.98
2018-03-17T05:54:08.871Z,24.00
2018-03-17T05:56:36.604Z,24.25
2018-03-17T05:59:04.274Z,26.90
2018-03-17T06:01:31.958Z,27.30
2018-03-17T06:03:59.665Z,25.37
2018-03-17T06:06:27.336Z,26.87
2018-03-17T06:08:55.025Z,25.30
2018-03-17T06:11:22.705Z,24.12
2018-03-17T06:13:50.728Z,23.55
2018-03-17T06:16:18.400Z,22.67
2018-03-17T06:18:46.086Z,25.52
2018-03-17T06:21:13.778Z,25.67
2018-03-17T06:23:41.457Z,24.80
2018-03-17T06:26:09.161Z,27.42
2018-03-17T06:28:36.840Z,24.80
2018-03-17T06:31:04.660Z,24.58
2018-03-17T06:33:32.340Z,24.77
2018-03-17T06:36:00.012Z,28.40
2018-03-17T06:38:27.721Z,26.65
2018-03-17T06:40:55.408Z,25.62
2018-03-17T06:43:23.114Z,22.45
2018-03-17T06:45:50.783Z,28.33
2018-03-17T06:48:18.504Z,23.90
2018-03-17T06:50:46.181Z,26.23
2018-03-17T06:53:13.866Z,27.40
2018-03-17T06:55:41.589Z,21.37
2018-03-17T06:58:09.266Z,26.55
2018-03-17T07:00:37.039Z,30.33
2018-03-17T07:03:04.665Z,23.80
2018-03-17T07:05:32.731Z,21.05
2018-03-17T07:08:00.434Z,21.90
2018-03-17T07:10:28.108Z,23.73
2018-03-17T07:12:55.799Z,23.60
2018-03-17T07:15:23.512Z,22.73
2018-03-17T07:17:51.210Z,22.80
2018-03-17T07:20:18.888Z,24.33
2018-03-17T07:22:46.800Z,22.87
2018-03-17T07:25:14.492Z,22.05
2018-03-17T07:27:42.160Z,27.87
2018-03-17T07:30:09.854Z,20.30
2018-03-17T07:32:37.550Z,23.00
2018-03-17T07:35:05.252Z,20.88
2018-03-17T07:37:32.940Z,28.77
2018-03-17T07:40:00.838Z,24.85
2018-03-17T07:42:28.597Z,25.17
2018-03-17T07:44:56.259Z,27.87
2018-03-17T07:47:23.955Z,28.50
2018-03-17T07:49:51.628Z,24.15
2018-03-17T07:52:19.343Z,26.10
2018-03-17T07:54:47.021Z,23.73
2018-03-17T07:57:15.099Z,20.40
2018-03-17T07:59:42.775Z,23.33
2018-03-17T08:02:10.453Z,24.17
2018-03-17T08:04:38.147Z,24.50
2018-03-17T08:07:05.828Z,19.52
2018-03-17T08:09:33.547Z,24.65
2018-03-17T08:12:01.243Z,23.10
2018-03-17T08:14:29.357Z,20.62
2018-03-17T08:16:57.035Z,20.83
2018-03-17T08:19:24.718Z,19.95
2018-03-17T08:21:52.415Z,21.85
2018-03-17T08:24:20.080Z,21.48
2018-03-17T08:26:47.776Z,21.87
2018-03-17T08:29:15.462Z,20.33
2018-03-17T08:31:43.401Z,19.67
2018-03-17T08:34:11.083Z,19.17
2018-03-17T08:36:38.772Z,23.45
2018-03-17T08:39:06.493Z,20.35
2018-03-17T08:41:34.169Z,18.83
2018-03-17T08:44:02.000Z,22.30
2018-03-17T08:46:29.684Z,21.45
2018-03-17T08:48:57.355Z,21.23
2018-03-17T08:51:25.058Z,22.70
2018-03-17T08:53:52.743Z,18.12
2018-03-17T08:56:20.471Z,19.92
2018-03-17T08:58:48.169Z,20.83
2018-03-17T09:01:15.839Z,18.08
2018-03-17T09:03:43.556Z,16.83
2018-03-17T09:06:11.252Z,20.17
2018-03-17T09:08:38.949Z,14.98
2018-03-17T09:11:06.623Z,24.87
2018-03-17T09:13:34.644Z,22.55
2018-03-17T09:16:02.310Z,17.98
2018-03-17T09:18:29.992Z,19.17
2018-03-17T09:20:57.704Z,20.62
2018-03-17T09:23:25.407Z,21.15
2018-03-17T09:25:53.192Z,20.73
2018-03-17T09:28:20.865Z,25.08
2018-03-17T09:30:48.603Z,16.58
2018-03-17T09:33:16.276Z,20.45
2018-03-17T09:35:43.949Z,17.80
2018-03-17T09:38:11.666Z,24.17
2018-03-17T09:40:39.356Z,16.40
2018-03-17T09:43:07.063Z,16.73
2018-03-17T09:45:34.743Z,19.02
2018-03-17T09:48:02.658Z,20.05
2018-03-17T09:50:30.323Z,15.95
2018-03-17T09:52:58.006Z,15.50
2018-03-17T09:55:25.701Z,22.25
2018-03-17T09:57:53.381Z,20.75
2018-03-17T10:00:21.084Z,15.45
2018-03-17T10:02:48.771Z,20.00
2018-03-17T10:05:16.491Z,18.87
2018-03-17T10:07:44.156Z,15.60
2018-03-17T10:10:11.843Z,16.98
2018-03-17T10:12:39.553Z,17.25
2018-03-17T10:15:07.224Z,18.27
2018-03-17T10:17:34.922Z,17.05
2018-03-17T10:20:02.599Z,17.42
2018-03-17T10:22:30.354Z,15.40
2018-03-17T10:24:58.031Z,16.80
2018-03-17T10:27:25.704Z,16.25
2018-03-17T10:29:53.410Z,14.20
2018-03-17T10:32:21.080Z,18.62
2018-03-17T10:34:48.784Z,24.73
2018-03-17T10:37:16.463Z,14.77
2018-03-17T10:39:44.435Z,16.95
2018-03-17T10:42:12.086Z,18.27
2018-03-17T10:44:39.784Z,19.85
2018-03-17T10:47:07.485Z,14.10
2018-03-17T10:49:35.168Z,22.15
2018-03-17T10:52:02.871Z,21.02
2018-03-17T10:54:30.573Z,19.30
2018-03-17T10:56:58.311Z,16.10
2018-03-17T10:59:26.032Z,19.27
2018-03-17T11:01:53.730Z,16.15
2018-03-17T11:04:21.532Z,19.40
2018-03-17T11:06:49.215Z,16.45
2018-03-17T11:09:16.914Z,16.87
2018-03-17T11:11:44.600Z,19.75
2018-03-17T11:14:12.407Z,22.87
2018-03-17T11:16:40.104Z,17.37
2018-03-17T11:19:07.788Z,20.48
2018-03-17T11:21:35.501Z,17.75
2018-03-17T11:24:03.201Z,17.50
2018-03-17T11:26:30.901Z,17.17
2018-03-17T11:28:58.605Z,13.32
2018-03-17T11:31:26.528Z,23.12
2018-03-17T11:33:54.231Z,16.50
2018-03-17T11:36:21.908Z,22.08
2018-03-17T11:38:49.620Z,19.00
2018-03-17T11:41:17.318Z,17.92
2018-03-17T11:43:45.054Z,17.33
2018-03-17T11:46:12.733Z,24.73
2018-03-17T11:48:40.424Z,17.42
2018-03-17T11:51:08.198Z,15.63
2018-03-17T11:53:35.866Z,14.80
2018-03-17T11:56:03.857Z,19.12
2018-03-17T11:58:31.532Z,15.85
2018-03-17T12:00:59.208Z,18.00
2018-03-17T12:03:26.909Z,17.70
2018-03-17T12:05:54.587Z,20.65
2018-03-17T12:08:22.274Z,15.02
2018-03-17T12:10:49.948Z,15.95
2018-03-17T12:13:17.709Z,16.20
2018-03-17T12:15:45.377Z,20.35
2018-03-17T12:18:13.044Z,15.68
2018-03-17T12:20:40.759Z,16.92
2018-03-17T12:23:08.437Z,16.25
2018-03-17T12:25:36.141Z,20.92
2018-03-17T12:28:03.818Z,14.77
2018-03-17T12:30:31.537Z,14.60
2018-03-17T12:32:59.247Z,17.35
2018-03-17T12:35:26.952Z,16.65
2018-03-17T12:37:54.782Z,17.15
2018-03-17T12:40:22.452Z,16.12
2018-03-17T12:42:50.152Z,14.20
2018-03-17T12:45:17.848Z,15.07
2018-03-17T12:47:45.880Z,27.02
2018-03-17T12:50:13.590Z,17.27
2018-03-17T12:52:41.257Z,14.45
2018-03-17T12:55:08.948Z,18.75
2018-03-17T12:57:36.620Z,11.25
2018-03-17T13:00:04.317Z,14.07
2018-03-17T13:02:31.988Z,17.37
2018-03-17T13:04:59.955Z,12.55
2018-03-17T13:07:27.636Z,14.57
2018-03-17T13:09:55.324Z,14.43
2018-03-17T13:12:23.028Z,13.23
2018-03-17T13:14:50.705Z,14.52
2018-03-17T13:17:18.419Z,15.50
2018-03-17T13:19:46.089Z,12.68
2018-03-17T13:22:13.812Z,9.45
2018-03-17T13:24:41.488Z,14.57
2018-03-17T13:27:21.202Z,17.45
2018-03-17T13:29:48.896Z,16.33
2018-03-17T13:32:28.716Z,12.30
2018-03-17T13:34:56.382Z,10.43
2018-03-17T13:37:40.367Z,14.18
2018-03-17T13:40:19.905Z,12.05
2018-03-17T13:42:48.039Z,17.55
2018-03-17T13:45:15.713Z,12.85
2018-03-17T13:47:43.393Z,14.27
2018-03-17T13:50:11.121Z,12.32
2018-03-17T13:52:38.791Z,15.80
2018-03-17T13:55:06.486Z,16.08
2018-03-17T13:57:34.154Z,19.70
2018-03-17T14:00:02.268Z,16.42
2018-03-17T14:02:29.931Z,11.85
2018-03-17T14:04:57.913Z,15.85
2018-03-17T14:07:25.619Z,17.92
2018-03-17T14:09:53.293Z,13.35
2018-03-17T14:12:20.984Z,12.45
2018-03-17T14:14:48.651Z,13.30
2018-03-17T14:17:16.645Z,11.48
2018-03-17T14:19:44.313Z,14.63
2018-03-17T14:22:12.001Z,12.18
2018-03-17T14:24:39.695Z,13.30
2018-03-17T14:27:07.373Z,15.18
2018-03-17T14:29:35.060Z,14.45
2018-03-17T14:32:02.730Z,21.77
2018-03-17T14:34:30.679Z,13.43
2018-03-17T14:36:58.345Z,12.30
2018-03-17T14:39:26.016Z,12.25
2018-03-17T14:41:53.711Z,15.30
2018-03-17T14:44:21.389Z,15.38
2018-03-17T14:46:49.116Z,14.75
2018-03-17T14:49:16.780Z,16.05
2018-03-17T14:51:44.500Z,16.27
2018-03-17T14:54:12.167Z,12.43
2018-03-17T14:56:39.842Z,17.17
2018-03-17T14:59:07.545Z,16.60
2018-03-17T15:01:35.229Z,12.13
2018-03-17T15:04:02.941Z,17.37
2018-03-17T15:06:30.615Z,19.70
2018-03-17T15:08:58.464Z,14.77
2018-03-17T15:11:26.140Z,13.98
2018-03-17T15:13:53.812Z,12.88
2018-03-17T15:16:21.502Z,16.27
2018-03-17T15:18:49.199Z,14.40
2018-03-17T15:21:16.899Z,14.07
2018-03-17T15:23:44.564Z,13.80
2018-03-17T15:26:12.254Z,16.87
2018-03-17T15:28:39.932Z,14.95
2018-03-17T15:31:07.776Z,18.52
2018-03-17T15:33:35.440Z,18.20
2018-03-17T15:36:03.115Z,16.85
2018-03-17T15:38:30.807Z,21.37
2018-03-17T15:40:58.472Z,13.90
2018-03-17T15:43:26.155Z,15.93
2018-03-17T15:45:53.862Z,14.95
2018-03-17T15:48:21.776Z,20.95
2018-03-17T15:50:49.485Z,20.75
2018-03-17T15:53:17.155Z,14.95
2018-03-17T15:55:44.836Z,15.23
2018-03-17T15:58:12.503Z,15.85
2018-03-17T16:00:40.201Z,14.77
2018-03-17T16:03:07.860Z,14.98
2018-03-17T16:05:35.541Z,19.25
2018-03-17T16:08:03.227Z,22.62
2018-03-17T16:10:30.894Z,17.45
2018-03-17T16:12:59.015Z,19.20
2018-03-17T16:15:26.681Z,17.73
2018-03-17T16:17:54.380Z,15.48
2018-03-17T16:20:22.076Z,21.62
2018-03-17T16:22:49.748Z,23.23
2018-03-17T16:25:17.440Z,19.30
2018-03-17T16:27:45.197Z,22.60
2018-03-17T16:30:13.363Z,22.37
2018-03-17T16:32:41.037Z,21.50
2018-03-17T16:35:08.709Z,17.30
2018-03-17T16:37:36.407Z,22.65
2018-03-17T16:40:04.081Z,28.75
2018-03-17T16:42:31.779Z,17.27
2018-03-17T16:44:59.444Z,18.12
2018-03-17T16:47:27.310Z,21.60
2018-03-17T16:49:54.980Z,20.40
2018-03-17T16:52:22.666Z,18.35
2018-03-17T16:54:50.360Z,16.85
2018-03-17T16:57:18.024Z,18.48
2018-03-17T16:59:45.723Z,19.08
2018-03-17T17:02:13.393Z,25.70
2018-03-17T17:04:41.121Z,19.58
2018-03-17T17:07:08.789Z,17.35
2018-03-17T17:09:36.465Z,23.58
2018-03-17T17:12:04.149Z,17.65
2018-03-17T17:14:31.826Z,23.45
2018-03-17T17:16:59.516Z,19.77
2018-03-17T17:19:27.176Z,22.65
2018-03-17T17:21:55.131Z,20.77
2018-03-17T17:24:22.797Z,20.15
2018-03-17T17:26:50.473Z,21.23
2018-03-17T17:29:18.163Z,19.42
2018-03-17T17:31:45.830Z,15.27
2018-03-17T17:34:13.537Z,16.65
2018-03-17T17:36:41.224Z,21.25
2018-03-17T17:39:09.035Z,19.95
2018-03-17T17:41:36.708Z,22.33
2018-03-17T17:44:04.372Z,16.55
2018-03-17T17:46:32.052Z,20.52
2018-03-17T17:48:59.713Z,17.23
2018-03-17T17:51:27.416Z,15.57
2018-03-17T17:53:55.317Z,15.45
2018-03-17T17:56:24.410Z,15.50
2018-03-17T17:58:52.086Z,20.33
2018-03-17T18:01:19.756Z,19.00
2018-03-17T18:03:47.483Z,17.42
2018-03-17T18:06:15.170Z,20.20
2018-03-17T18:08:42.855Z,19.20
2018-03-17T18:11:10.516Z,20.50
2018-03-17T18:13:38.228Z,20.05
2018-03-17T18:16:05.906Z,22.30
2018-03-17T18:18:33.608Z,17.55
2018-03-17T18:21:01.306Z,18.23
2018-03-17T18:23:28.971Z,16.42
2018-03-17T18:25:57.064Z,18.30
2018-03-17T18:28:24.724Z,16.92
2018-03-17T18:30:52.389Z,18.20
2018-03-17T18:33:20.080Z,15.65
2018-03-17T18:35:47.746Z,15.88
2018-03-17T18:38:15.696Z,16.08
2018-03-17T18:40:43.361Z,16.87
2018-03-17T18:43:11.163Z,18.58
2018-03-17T18:45:38.856Z,16.00
2018-03-17T18:48:06.612Z,20.12
2018-03-17T18:50:34.297Z,17.30
2018-03-17T18:53:02.139Z,15.25
2018-03-17T18:55:29.855Z,13.82
2018-03-17T18:57:57.520Z,15.23
2018-03-17T19:00:25.184Z,14.27
2018-03-17T19:02:52.864Z,16.40
2018-03-17T19:05:20.540Z,17.25
2018-03-17T19:07:48.230Z,18.67
2018-03-17T19:10:15.893Z,13.25
2018-03-17T19:12:43.884Z,17.73
2018-03-17T19:15:11.576Z,16.45
2018-03-17T19:17:39.373Z,16.65
2018-03-17T19:20:07.061Z,13.52
2018-03-17T19:22:34.755Z,13.90
2018-03-17T19:25:02.442Z,20.15
2018-03-17T19:27:30.114Z,16.23
2018-03-17T19:29:58.154Z,16.17
2018-03-17T19:32:25.816Z,18.17
2018-03-17T19:34:53.484Z,17.02
2018-03-17T19:37:21.176Z,20.40
2018-03-17T19:39:48.844Z,20.90
2018-03-17T19:42:16.532Z,15.98
2018-03-17T19:44:44.196Z,15.88
2018-03-17T19:47:11.908Z,20.23
2018-03-17T19:49:39.661Z,15.55
2018-03-17T19:52:07.316Z,14.07
2018-03-17T19:54:35.016Z,14.63
2018-03-17T19:57:02.692Z,11.95
2018-03-17T19:59:30.373Z,14.90
2018-03-17T20:01:58.036Z,12.77
2018-03-17T20:04:25.731Z,12.68
2018-03-17T20:06:53.404Z,15.82
2018-03-17T20:09:21.108Z,18.65
2018-03-17T20:11:48.778Z,17.12
2018-03-17T20:14:16.487Z,12.73
2018-03-17T20:16:44.151Z,19.33
2018-03-17T20:19:11.873Z,13.98
2018-03-17T20:21:39.555Z,16.25
2018-03-17T20:24:07.241Z,17.27
2018-03-17T20:26:34.927Z,16.05
2018-03-17T20:29:02.602Z,14.80
2018-03-17T20:31:30.975Z,15.93
2018-03-17T20:33:58.644Z,18.55
2018-03-17T20:36:26.336Z,14.75
2018-03-17T20:38:54.279Z,17.00
2018-03-17T20:41:21.994Z,15.93
2018-03-17T20:43:49.660Z,11.50
2018-03-17T20:46:17.347Z,17.42
2018-03-17T20:48:45.016Z,11.88
2018-03-17T20:51:12.711Z,14.65
2018-03-17T20:53:40.372Z,17.20
2018-03-17T20:56:08.274Z,16.75
2018-03-17T20:58:35.943Z,17.05
2018-03-17T21:01:03.620Z,16.12
2018-03-17T21:03:31.306Z,19.30
2018-03-17T21:05:58.973Z,17.02
2018-03-17T21:08:26.668Z,17.08
2018-03-17T21:10:54.339Z,19.58
2018-03-17T21:13:22.375Z,19.80
2018-03-17T21:15:50.041Z,15.13
2018-03-17T21:18:17.764Z,16.45
2018-03-17T21:20:45.431Z,18.08
2018-03-17T21:23:13.105Z,23.45
2018-03-17T21:25:40.796Z,28.15
2018-03-17T21:28:08.473Z,18.40
2018-03-17T21:30:36.157Z,19.70
2018-03-17T21:33:03.827Z,17.27
2018-03-17T21:35:31.539Z,16.08
2018-03-17T21:37:59.260Z,19.62
2018-03-17T21:40:26.935Z,17.73
2018-03-17T21:42:54.623Z,28.45
2018-03-17T21:45:22.297Z,23.25
2018-03-17T21:47:49.985Z,22.95
2018-03-17T21:50:17.664Z,16.30
2018-03-17T21:52:45.733Z,18.77
2018-03-17T21:55:13.425Z,20.00
2018-03-17T21:57:41.116Z,21.37
2018-03-17T22:00:08.814Z,17.62
2018-03-17T22:02:36.488Z,18.27
2018-03-17T22:05:04.190Z,27.37
2018-03-17T22:07:31.860Z,22.73
2018-03-17T22:09:59.564Z,22.75
2018-03-17T22:12:27.236Z,18.15
2018-03-17T22:14:54.965Z,32.10
2018-03-17T22:17:22.764Z,22.98
2018-03-17T22:19:50.435Z,21.60
2018-03-17T22:22:18.155Z,19.77
2018-03-17T22:24:45.827Z,22.55
2018-03-17T22:27:13.524Z,24.10
2018-03-17T22:29:41.203Z,28.62
2018-03-17T22:32:09.148Z,23.10
2018-03-17T22:34:36.828Z,21.90
2018-03-17T22:37:04.488Z,21.15
2018-03-17T22:39:32.194Z,16.15
2018-03-17T22:41:59.879Z,24.33
2018-03-17T22:44:27.576Z,23.55
2018-03-17T22:46:55.255Z,17.35
2018-03-17T22:49:23.423Z,22.15
2018-03-17T22:51:51.090Z,26.08
2018-03-17T22:54:18.770Z,22.83
2018-03-17T22:56:46.470Z,21.87
2018-03-17T22:59:14.149Z,21.33
2018-03-17T23:01:41.839Z,19.60
2018-03-17T23:04:09.522Z,19.95
2018-03-17T23:06:37.329Z,20.17
2018-03-17T23:09:05.341Z,24.58
2018-03-17T23:11:33.052Z,21.67
2018-03-17T23:14:00.757Z,22.45
2018-03-17T23:16:28.429Z,23.17
2018-03-17T23:18:56.170Z,19.60
2018-03-17T23:21:23.842Z,20.17
2018-03-17T23:23:51.566Z,22.70
2018-03-17T23:26:19.261Z,27.98
2018-03-17T23:28:46.953Z,21.12
2018-03-17T23:31:14.650Z,18.12
2018-03-17T23:33:42.341Z,18.95
2018-03-17T23:36:10.052Z,21.00
2018-03-17T23:38:37.728Z,25.35
2018-03-17T23:41:05.745Z,23.90
2018-03-17T23:43:33.450Z,19.17
2018-03-17T23:46:01.128Z,19.95
2018-03-17T23:48:28.844Z,20.50
2018-03-17T23:50:56.528Z,17.40
2018-03-17T23:53:24.235Z,29.85
2018-03-17T23:55:52.027Z,24.23
2018-03-17T23:58:19.999Z,35.67
